createdAt,value
2018-08-29T00:01:14.816Z,100258.10
2018-08-29T00:03:43.862Z,100255.20
2018-08-29T00:06:12.857Z,100265.08
2018-08-29T00:08:46.993Z,100261.88
2018-08-29T00:11:15.974Z,100259.16
2018-08-29T00:13:44.980Z,100266.97
2018-08-29T00:16:14.021Z,100268.22
2018-08-29T00:18:42.975Z,100257.39
2018-08-29T00:21:11.930Z,100249.59
2018-08-29T00:23:40.874Z,100254.59
2018-08-29T00:26:10.175Z,100259.81
2018-08-29T00:28:39.090Z,100266.83
2018-08-29T00:31:08.256Z,100271.59
2018-08-29T00:33:37.674Z,100265.62
2018-08-29T00:36:06.764Z,100263.78
2018-08-29T00:38:35.704Z,100256.48
2018-08-29T00:41:04.640Z,100266.75
2018-08-29T00:43:33.549Z,100266.61
2018-08-29T00:46:02.663Z,100260.57
2018-08-29T00:48:31.621Z,100249.72
2018-08-29T00:51:00.565Z,100254.58
2018-08-29T00:53:29.513Z,100246.34
2018-08-29T00:55:58.527Z,100233.16
2018-08-29T00:58:27.705Z,100226.33
2018-08-29T01:00:56.750Z,100225.38
2018-08-29T01:03:26.066Z,100222.51
2018-08-29T01:05:55.096Z,100223.12
2018-08-29T01:08:24.006Z,100224.77
2018-08-29T01:10:52.945Z,100228.13
2018-08-29T01:13:21.857Z,100227.37
2018-08-29T01:15:50.826Z,100223.52
2018-08-29T01:18:19.912Z,100212.59
2018-08-29T01:20:49.052Z,100208.79
2018-08-29T01:23:17.986Z,100208.03
2018-08-29T01:25:47.021Z,100202.59
2018-08-29T01:28:15.978Z,100204.58
2018-08-29T01:30:45.030Z,100203.77
2018-08-29T01:33:13.945Z,100216.42
2018-08-29T01:35:42.897Z,100207.02
2018-08-29T01:38:12.078Z,100207.89
2018-08-29T01:40:41.155Z,100208.28
2018-08-29T01:43:10.407Z,100213.41
2018-08-29T01:45:39.637Z,100223.16
2018-08-29T01:48:09.077Z,100216.05
2018-08-29T01:50:38.096Z,100218.95
2018-08-29T01:53:06.986Z,100215.35
2018-08-29T01:55:35.974Z,100220.84
2018-08-29T01:58:05.006Z,100210.51
2018-08-29T02:00:33.978Z,100208.16
2018-08-29T02:03:03.008Z,100204.31
2018-08-29T02:05:31.997Z,100203.14
2018-08-29T02:08:00.945Z,100207.33
2018-08-29T02:10:29.908Z,100212.53
2018-08-29T02:12:59.046Z,100215.04
2018-08-29T02:15:28.011Z,100218.05
2018-08-29T02:17:57.019Z,100221.75
2018-08-29T02:20:26.023Z,100211.18
2018-08-29T02:22:55.113Z,100207.44
2018-08-29T02:25:24.046Z,100205.31
2018-08-29T02:27:53.410Z,100203.42
2018-08-29T02:30:22.378Z,100198.27
2018-08-29T02:32:51.350Z,100206.44
2018-08-29T02:35:20.306Z,100208.14
2018-08-29T02:37:49.677Z,100208.31
2018-08-29T02:40:18.757Z,100202.77
2018-08-29T02:42:52.897Z,100199.29
2018-08-29T02:45:21.814Z,100191.08
2018-08-29T02:47:50.786Z,100194.33
2018-08-29T02:50:19.682Z,100191.73
2018-08-29T02:52:49.105Z,100195.75
2018-08-29T02:55:23.195Z,100202.47
2018-08-29T02:57:52.226Z,100203.13
2018-08-29T03:00:21.577Z,100197.27
2018-08-29T03:02:50.574Z,100192.41
2018-08-29T03:05:19.537Z,100189.05
2018-08-29T03:07:48.565Z,100183.61
2018-08-29T03:10:17.602Z,100181.32
2018-08-29T03:12:46.612Z,100177.44
2018-08-29T03:15:15.565Z,100169.89
2018-08-29T03:17:44.596Z,100172.72
2018-08-29T03:20:13.562Z,100177.91
2018-08-29T03:22:42.594Z,100180.59
2018-08-29T03:25:11.937Z,100180.95
2018-08-29T03:27:41.443Z,100161.87
2018-08-29T03:30:10.805Z,100171.51
2018-08-29T03:32:40.162Z,100177.30
2018-08-29T03:35:09.725Z,100170.60
2018-08-29T03:37:38.868Z,100160.68
2018-08-29T03:40:08.692Z,100161.16
2018-08-29T03:42:37.674Z,100152.96
2018-08-29T03:45:06.710Z,100147.95
2018-08-29T03:47:35.766Z,100155.52
2018-08-29T03:50:04.755Z,100163.19
2018-08-29T03:52:33.797Z,100164.20
2018-08-29T03:55:02.776Z,100157.84
2018-08-29T03:57:31.820Z,100160.15
2018-08-29T04:00:00.807Z,100152.67
2018-08-29T04:02:29.931Z,100152.61
2018-08-29T04:04:59.230Z,100153.61
2018-08-29T04:07:28.285Z,100151.46
2018-08-29T04:09:57.506Z,100149.94
2018-08-29T04:12:26.592Z,100138.70
2018-08-29T04:14:55.613Z,100142.63
2018-08-29T04:17:24.600Z,100137.88
2018-08-29T04:19:53.586Z,100139.88
2018-08-29T04:22:22.578Z,100141.23
2018-08-29T04:24:51.786Z,100143.72
2018-08-29T04:27:21.169Z,100137.20
2018-08-29T04:29:50.293Z,100139.20
2018-08-29T04:32:19.530Z,100133.61
2018-08-29T04:34:48.538Z,100127.47
2018-08-29T04:37:17.538Z,100114.59
2018-08-29T04:39:46.535Z,100111.49
2018-08-29T04:42:15.542Z,100117.55
2018-08-29T04:44:44.629Z,100126.70
2018-08-29T04:47:13.650Z,100129.17
2018-08-29T04:49:42.621Z,100133.47
2018-08-29T04:52:11.629Z,100142.38
2018-08-29T04:54:40.750Z,100132.32
2018-08-29T04:57:09.690Z,100139.27
2018-08-29T04:59:38.786Z,100139.73
2018-08-29T05:02:07.965Z,100148.86
2018-08-29T05:04:37.102Z,100146.92
2018-08-29T05:07:06.381Z,100148.52
2018-08-29T05:09:35.356Z,100158.30
2018-08-29T05:12:04.315Z,100156.13
2018-08-29T05:14:33.301Z,100163.83
2018-08-29T05:17:02.318Z,100164.70
2018-08-29T05:19:31.359Z,100158.73
2018-08-29T05:22:00.259Z,100155.55
2018-08-29T05:24:29.511Z,100168.79
2018-08-29T05:26:58.741Z,100169.87
2018-08-29T05:29:28.171Z,100166.85
2018-08-29T05:31:57.155Z,100159.69
2018-08-29T05:34:26.173Z,100164.87
2018-08-29T05:36:55.274Z,100156.84
2018-08-29T05:39:24.649Z,100159.86
2018-08-29T05:41:53.773Z,100157.52
2018-08-29T05:44:22.785Z,100152.64
2018-08-29T05:46:51.826Z,100151.79
2018-08-29T05:49:20.870Z,100153.81
2018-08-29T05:51:49.894Z,100156.30
2018-08-29T05:54:30.567Z,100151.48
2018-08-29T05:56:59.838Z,100148.77
2018-08-29T05:59:30.170Z,100151.48
2018-08-29T06:01:59.766Z,100152.31
2018-08-29T06:04:29.052Z,100154.78
2018-08-29T06:06:58.427Z,100147.34
2018-08-29T06:09:27.518Z,100152.61
2018-08-29T06:11:56.519Z,100156.56
2018-08-29T06:14:25.505Z,100151.08
2018-08-29T06:16:54.465Z,100148.87
2018-08-29T06:19:23.874Z,100155.05
2018-08-29T06:21:52.907Z,100171.58
2018-08-29T06:24:21.956Z,100165.27
2018-08-29T06:26:50.900Z,100158.72
2018-08-29T06:29:19.985Z,100138.55
2018-08-29T06:31:49.818Z,100137.45
2018-08-29T06:34:18.949Z,100131.89
2018-08-29T06:36:48.235Z,100134.89
2018-08-29T06:39:17.269Z,100121.56
2018-08-29T06:41:46.229Z,100120.92
2018-08-29T06:44:15.367Z,100121.06
2018-08-29T06:46:45.023Z,100118.82
2018-08-29T06:49:14.069Z,100115.76
2018-08-29T06:51:43.178Z,100107.48
2018-08-29T06:54:12.321Z,100112.72
2018-08-29T06:56:41.519Z,100120.91
2018-08-29T06:59:14.455Z,100126.53
2018-08-29T07:01:43.617Z,100122.61
2018-08-29T07:04:12.609Z,100127.17
2018-08-29T07:06:41.746Z,100128.00
2018-08-29T07:09:12.850Z,100127.10
2018-08-29T07:11:42.345Z,100122.15
2018-08-29T07:14:12.173Z,100118.70
2018-08-29T07:16:41.623Z,100120.48
2018-08-29T07:19:10.925Z,100125.33
2018-08-29T07:21:40.286Z,100132.09
2018-08-29T07:24:09.513Z,100121.55
2018-08-29T07:26:38.682Z,100130.27
2018-08-29T07:29:08.242Z,100130.09
2018-08-29T07:31:37.514Z,100131.13
2018-08-29T07:34:06.839Z,100132.09
2018-08-29T07:36:36.214Z,100126.34
2018-08-29T07:39:06.714Z,100130.66
2018-08-29T07:41:36.326Z,100123.98
2018-08-29T07:44:06.167Z,100114.16
2018-08-29T07:46:35.462Z,100115.87
2018-08-29T07:49:04.883Z,100119.84
2018-08-29T07:51:34.378Z,100123.04
2018-08-29T07:54:03.484Z,100121.17
2018-08-29T07:56:32.388Z,100124.56
2018-08-29T07:59:01.461Z,100133.26
2018-08-29T08:01:30.617Z,100134.95
2018-08-29T08:03:59.637Z,100136.59
2018-08-29T08:06:28.635Z,100139.53
2018-08-29T08:09:03.104Z,100141.68
2018-08-29T08:11:32.010Z,100142.72
2018-08-29T08:14:01.062Z,100138.19
2018-08-29T08:16:30.082Z,100123.16
2018-08-29T08:18:59.076Z,100119.66
2018-08-29T08:21:28.247Z,100120.47
2018-08-29T08:23:57.158Z,100112.36
2018-08-29T08:26:26.374Z,100112.66
2018-08-29T08:28:55.362Z,100107.95
2018-08-29T08:31:24.481Z,100103.25
2018-08-29T08:33:53.527Z,100090.23
2018-08-29T08:36:22.660Z,100094.16
2018-08-29T08:38:51.734Z,100093.53
2018-08-29T08:41:20.709Z,100093.12
2018-08-29T08:43:49.833Z,100096.98
2018-08-29T08:46:18.815Z,100088.99
2018-08-29T08:48:48.148Z,100084.56
2018-08-29T08:51:16.907Z,100084.58
2018-08-29T08:53:45.886Z,100094.08
2018-08-29T08:56:14.944Z,100095.69
2018-08-29T08:58:44.014Z,100093.28
2018-08-29T09:01:13.029Z,100088.45
2018-08-29T09:03:42.037Z,100076.35
2018-08-29T09:06:11.137Z,100084.37
2018-08-29T09:08:40.179Z,100074.37
2018-08-29T09:11:09.509Z,100065.17
2018-08-29T09:13:38.520Z,100065.94
2018-08-29T09:16:07.625Z,100063.95
2018-08-29T09:18:36.687Z,100058.96
2018-08-29T09:21:05.831Z,100071.22
2018-08-29T09:23:34.943Z,100072.78
2018-08-29T09:26:04.085Z,100061.45
2018-08-29T09:28:33.240Z,100077.61
2018-08-29T09:31:02.610Z,100068.63
2018-08-29T09:33:31.629Z,100078.19
2018-08-29T09:36:00.722Z,100085.25
2018-08-29T09:38:29.694Z,100085.44
2018-08-29T09:40:58.766Z,100085.97
2018-08-29T09:43:27.806Z,100087.48
2018-08-29T09:45:56.785Z,100083.65
2018-08-29T09:48:26.124Z,100094.98
2018-08-29T09:50:56.107Z,100101.56
2018-08-29T09:53:25.070Z,100102.84
2018-08-29T09:55:54.137Z,100099.14
2018-08-29T09:58:23.254Z,100096.38
2018-08-29T10:00:57.346Z,100104.85
2018-08-29T10:03:26.591Z,100094.47
2018-08-29T10:05:55.993Z,100090.91
2018-08-29T10:08:25.365Z,100082.13
2018-08-29T10:10:54.971Z,100079.02
2018-08-29T10:13:24.211Z,100075.73
2018-08-29T10:15:53.644Z,100077.16
2018-08-29T10:18:23.002Z,100071.95
2018-08-29T10:20:52.337Z,100063.03
2018-08-29T10:23:21.403Z,100064.84
2018-08-29T10:25:50.317Z,100054.94
2018-08-29T10:28:19.548Z,100053.63
2018-08-29T10:30:48.774Z,100056.33
2018-08-29T10:33:17.830Z,100046.27
2018-08-29T10:35:47.259Z,100033.41
2018-08-29T10:38:16.355Z,100034.45
2018-08-29T10:40:45.387Z,100041.55
2018-08-29T10:43:14.716Z,100032.33
2018-08-29T10:45:43.666Z,100023.83
2018-08-29T10:48:12.753Z,100027.59
2018-08-29T10:50:41.817Z,100017.80
2018-08-29T10:53:10.791Z,100020.96
2018-08-29T10:55:39.949Z,100020.17
2018-08-29T10:58:09.026Z,100019.05
2018-08-29T11:00:38.118Z,100009.71
2018-08-29T11:03:07.612Z,100008.09
2018-08-29T11:05:36.570Z,100004.59
2018-08-29T11:08:05.600Z,99994.27
2018-08-29T11:10:34.599Z,99986.73
2018-08-29T11:13:03.831Z,99979.31
2018-08-29T11:15:32.834Z,99976.89
2018-08-29T11:18:01.847Z,99971.05
2018-08-29T11:20:30.916Z,99973.59
2018-08-29T11:22:59.869Z,99967.53
2018-08-29T11:25:28.770Z,99962.67
2018-08-29T11:27:57.799Z,99965.16
2018-08-29T11:30:26.745Z,99958.18
2018-08-29T11:32:55.814Z,99967.80
2018-08-29T11:35:24.735Z,99963.39
2018-08-29T11:37:53.784Z,99970.01
2018-08-29T11:40:22.794Z,99972.93
2018-08-29T11:42:51.849Z,99959.84
2018-08-29T11:45:20.907Z,99961.97
2018-08-29T11:47:49.994Z,99952.16
2018-08-29T11:50:18.954Z,99950.45
2018-08-29T11:52:47.914Z,99950.53
2018-08-29T11:55:17.037Z,99946.61
2018-08-29T11:57:46.070Z,99953.91
2018-08-29T12:00:15.056Z,99954.39
2018-08-29T12:02:44.314Z,99945.78
2018-08-29T12:05:13.618Z,99947.38
2018-08-29T12:07:42.934Z,99933.66
2018-08-29T12:10:11.911Z,99942.67
2018-08-29T12:12:41.130Z,99947.90
2018-08-29T12:15:10.342Z,99945.55
2018-08-29T12:17:39.514Z,99937.33
2018-08-29T12:20:08.806Z,99939.48
2018-08-29T12:22:37.822Z,99924.98
2018-08-29T12:25:06.746Z,99926.49
2018-08-29T12:27:36.101Z,99918.47
2018-08-29T12:30:05.246Z,99924.59
2018-08-29T12:32:34.618Z,99921.75
2018-08-29T12:35:03.885Z,99933.08
2018-08-29T12:37:33.331Z,99929.83
2018-08-29T12:40:02.653Z,99924.66
2018-08-29T12:42:31.634Z,99924.16
2018-08-29T12:45:00.666Z,99922.73
2018-08-29T12:47:29.718Z,99923.59
2018-08-29T12:49:58.710Z,99914.47
2018-08-29T12:52:27.702Z,99916.03
2018-08-29T12:54:57.087Z,99921.78
2018-08-29T12:57:26.545Z,99908.67
2018-08-29T12:59:55.546Z,99907.04
2018-08-29T13:02:24.567Z,99904.19
2018-08-29T13:04:53.755Z,99896.53
2018-08-29T13:07:22.809Z,99894.94
2018-08-29T13:09:51.970Z,99899.52
2018-08-29T13:12:21.195Z,99900.65
2018-08-29T13:14:50.634Z,99892.75
2018-08-29T13:17:19.910Z,99899.67
2018-08-29T13:19:48.886Z,99895.05
2018-08-29T13:22:17.936Z,99887.88
2018-08-29T13:24:46.955Z,99883.09
2018-08-29T13:27:16.340Z,99880.02
2018-08-29T13:29:45.527Z,99883.08
2018-08-29T13:32:14.678Z,99884.97
2018-08-29T13:34:44.066Z,99884.97
2018-08-29T13:37:13.057Z,99879.84
2018-08-29T13:39:42.101Z,99883.39
2018-08-29T13:42:11.054Z,99888.56
2018-08-29T13:44:40.422Z,99893.81
2018-08-29T13:47:09.724Z,99891.92
2018-08-29T13:49:38.820Z,99898.51
2018-08-29T13:52:08.189Z,99896.52
2018-08-29T13:54:37.817Z,99896.51
2018-08-29T13:57:07.015Z,99890.28
2018-08-29T13:59:36.375Z,99893.58
2018-08-29T14:02:05.737Z,99896.89
2018-08-29T14:04:34.804Z,99918.01
2018-08-29T14:07:03.765Z,99919.19
2018-08-29T14:09:32.853Z,99924.53
2018-08-29T14:12:01.846Z,99930.14
2018-08-29T14:14:31.321Z,99955.67
2018-08-29T14:17:00.446Z,99966.83
2018-08-29T14:19:29.525Z,99975.58
2018-08-29T14:21:58.537Z,99978.79
2018-08-29T14:24:27.658Z,99963.40
2018-08-29T14:26:56.774Z,99954.63
2018-08-29T14:29:26.137Z,99964.02
2018-08-29T14:31:55.386Z,99954.57
2018-08-29T14:34:25.592Z,99953.91
2018-08-29T14:36:54.953Z,99949.56
2018-08-29T14:39:24.647Z,99951.77
2018-08-29T14:41:53.663Z,99942.06
2018-08-29T14:44:22.726Z,99939.05
2018-08-29T14:46:51.689Z,99932.31
2018-08-29T14:49:20.621Z,99928.97
2018-08-29T14:51:49.641Z,99922.75
2018-08-29T14:54:18.530Z,99917.23
2018-08-29T14:56:47.985Z,99912.34
2018-08-29T14:59:19.658Z,99900.70
2018-08-29T15:02:10.722Z,99905.54
2018-08-29T15:04:41.033Z,99917.41
2018-08-29T15:07:10.860Z,99936.64
2018-08-29T15:09:40.634Z,99947.83
2018-08-29T15:12:10.134Z,99948.31
2018-08-29T15:14:39.578Z,99953.13
2018-08-29T15:17:08.518Z,99951.67
2018-08-29T15:19:37.620Z,99971.28
2018-08-29T15:22:07.069Z,99972.94
2018-08-29T15:24:37.247Z,99969.29
2018-08-29T15:27:06.271Z,99964.73
2018-08-29T15:29:35.212Z,99968.56
2018-08-29T15:32:04.198Z,99975.67
2018-08-29T15:34:33.088Z,99980.45
2018-08-29T15:37:02.408Z,99981.62
2018-08-29T15:39:32.012Z,99971.66
2018-08-29T15:42:01.417Z,99971.34
2018-08-29T15:44:30.686Z,99975.35
2018-08-29T15:46:59.762Z,99974.05
2018-08-29T15:49:28.650Z,99968.14
2018-08-29T15:51:57.795Z,99965.22
2018-08-29T15:54:27.290Z,99941.50
2018-08-29T15:56:57.922Z,99948.14
2018-08-29T15:59:27.950Z,99940.19
2018-08-29T16:01:57.630Z,99938.88
2018-08-29T16:04:27.402Z,99936.50
2018-08-29T16:06:56.873Z,99936.94
2018-08-29T16:09:26.173Z,99936.95
2018-08-29T16:11:55.774Z,99941.02
2018-08-29T16:14:25.242Z,99928.78
2018-08-29T16:16:54.369Z,99938.14
2018-08-29T16:19:23.298Z,99938.63
2018-08-29T16:21:52.377Z,99938.83
2018-08-29T16:24:21.423Z,99936.05
2018-08-29T16:26:50.734Z,99940.77
2018-08-29T16:29:20.062Z,99932.87
2018-08-29T16:31:49.726Z,99929.85
2018-08-29T16:34:19.051Z,99937.57
2018-08-29T16:36:48.202Z,99943.50
2018-08-29T16:39:17.449Z,99943.45
2018-08-29T16:41:46.769Z,99943.09
2018-08-29T16:44:15.724Z,99933.06
2018-08-29T16:46:44.693Z,99919.06
2018-08-29T16:49:14.030Z,99937.47
2018-08-29T16:51:43.074Z,99946.44
2018-08-29T16:54:12.058Z,99950.13
2018-08-29T16:56:41.090Z,99943.77
2018-08-29T16:59:10.058Z,99949.28
2018-08-29T17:01:39.063Z,99952.39
2018-08-29T17:04:08.073Z,99959.05
2018-08-29T17:06:37.471Z,99953.97
2018-08-29T17:09:06.582Z,99953.42
2018-08-29T17:11:35.659Z,99956.77
2018-08-29T17:14:04.922Z,99956.68
2018-08-29T17:16:34.529Z,99949.42
2018-08-29T17:19:03.958Z,99951.53
2018-08-29T17:21:33.453Z,99951.85
2018-08-29T17:24:02.627Z,99951.86
2018-08-29T17:26:33.581Z,99953.08
2018-08-29T17:29:02.641Z,99954.08
2018-08-29T17:31:32.737Z,99948.94
2018-08-29T17:34:02.105Z,99941.92
2018-08-29T17:36:31.507Z,99958.20
2018-08-29T17:39:00.927Z,99964.48
2018-08-29T17:41:29.996Z,99969.34
2018-08-29T17:43:58.962Z,99963.70
2018-08-29T17:46:27.969Z,99961.85
2018-08-29T17:48:56.973Z,99961.53
2018-08-29T17:51:26.010Z,99958.13
2018-08-29T17:53:54.989Z,99960.69
2018-08-29T17:56:24.057Z,99961.05
2018-08-29T17:58:53.062Z,99951.05
2018-08-29T18:01:22.065Z,99955.57
2018-08-29T18:03:51.062Z,99956.93
2018-08-29T18:06:20.090Z,99955.91
2018-08-29T18:08:49.002Z,99957.86
2018-08-29T18:11:18.320Z,99970.02
2018-08-29T18:13:47.706Z,99972.89
2018-08-29T18:16:17.146Z,99982.48
2018-08-29T18:18:47.351Z,99989.14
2018-08-29T18:21:16.791Z,99997.91
2018-08-29T18:23:45.926Z,99992.46
2018-08-29T18:26:15.176Z,100001.83
2018-08-29T18:28:44.518Z,100003.48
2018-08-29T18:31:13.577Z,100008.86
2018-08-29T18:33:42.502Z,100013.70
2018-08-29T18:36:11.421Z,100024.48
2018-08-29T18:38:40.386Z,100028.08
2018-08-29T18:41:09.348Z,100043.27
2018-08-29T18:43:38.442Z,100051.77
2018-08-29T18:46:07.403Z,100053.75
2018-08-29T18:48:36.414Z,100041.91
2018-08-29T18:51:05.666Z,100052.68
2018-08-29T18:53:34.678Z,100057.17
2018-08-29T18:56:03.965Z,100058.92
2018-08-29T18:58:33.110Z,100068.20
2018-08-29T19:01:02.458Z,100067.16
2018-08-29T19:03:31.700Z,100062.28
2018-08-29T19:06:00.939Z,100069.29
2018-08-29T19:08:30.295Z,100071.22
2018-08-29T19:10:59.370Z,100072.78
2018-08-29T19:13:28.688Z,100066.53
2018-08-29T19:15:57.697Z,100074.55
2018-08-29T19:18:26.696Z,100064.52
2018-08-29T19:20:55.666Z,100063.55
2018-08-29T19:23:24.651Z,100071.61
2018-08-29T19:25:53.674Z,100067.73
2018-08-29T19:28:22.784Z,100068.38
2018-08-29T19:30:51.809Z,100070.70
2018-08-29T19:33:20.762Z,100069.62
2018-08-29T19:35:49.758Z,100069.24
2018-08-29T19:38:18.886Z,100067.23
2018-08-29T19:40:47.813Z,100068.25
2018-08-29T19:43:16.814Z,100067.05
2018-08-29T19:45:45.894Z,100065.89
2018-08-29T19:48:14.893Z,100053.93
2018-08-29T19:50:43.925Z,100060.28
2018-08-29T19:53:12.884Z,100059.09
2018-08-29T19:55:41.811Z,100053.31
2018-08-29T19:58:10.857Z,100062.92
2018-08-29T20:00:39.715Z,100056.96
2018-08-29T20:03:08.685Z,100059.38
2018-08-29T20:05:37.784Z,100057.59
2018-08-29T20:08:06.827Z,100065.96
2018-08-29T20:10:35.753Z,100071.23
2018-08-29T20:13:04.774Z,100076.67
2018-08-29T20:15:33.898Z,100073.17
2018-08-29T20:18:02.837Z,100078.52
2018-08-29T20:20:31.837Z,100082.51
2018-08-29T20:23:00.866Z,100079.86
2018-08-29T20:25:29.777Z,100086.56
2018-08-29T20:27:58.885Z,100088.55
2018-08-29T20:30:27.817Z,100090.20
2018-08-29T20:32:57.010Z,100090.42
2018-08-29T20:35:25.904Z,100101.87
2018-08-29T20:37:54.857Z,100099.58
2018-08-29T20:40:23.942Z,100104.31
2018-08-29T20:42:52.913Z,100100.88
2018-08-29T20:45:21.789Z,100107.11
2018-08-29T20:47:50.753Z,100097.30
2018-08-29T20:50:19.728Z,100095.39
2018-08-29T20:52:48.675Z,100101.58
2018-08-29T20:55:17.634Z,100094.29
2018-08-29T20:57:46.625Z,100100.86
2018-08-29T21:00:15.599Z,100101.94
2018-08-29T21:02:44.658Z,100105.09
2018-08-29T21:05:13.597Z,100113.56
2018-08-29T21:07:42.677Z,100114.87
2018-08-29T21:10:11.635Z,100118.82
2018-08-29T21:12:40.710Z,100129.50
2018-08-29T21:15:09.673Z,100119.78
2018-08-29T21:17:38.706Z,100120.84
2018-08-29T21:20:07.719Z,100123.25
2018-08-29T21:22:36.693Z,100118.28
2018-08-29T21:25:05.974Z,100125.45
2018-08-29T21:27:46.029Z,100118.09
2018-08-29T21:30:25.999Z,100125.36
2018-08-29T21:33:32.601Z,100125.84
2018-08-29T21:37:10.180Z,100129.43
2018-08-29T21:39:39.130Z,100120.87
2018-08-29T21:42:08.186Z,100126.08
2018-08-29T21:44:48.086Z,100126.56
2018-08-29T21:48:03.917Z,100133.98
2018-08-29T21:50:44.011Z,100136.91
2018-08-29T21:56:28.286Z,100134.04
2018-08-29T21:59:09.005Z,100143.07
2018-08-29T22:02:20.176Z,100140.73
2018-08-29T22:05:14.029Z,100145.77
2018-08-29T22:07:43.188Z,100148.13
2018-08-29T22:10:12.617Z,100146.63
2018-08-29T22:12:41.586Z,100156.33
2018-08-29T22:15:22.887Z,100156.50
2018-08-29T22:17:51.861Z,100167.17
2018-08-29T22:20:21.442Z,100158.48
2018-08-29T22:22:50.674Z,100157.34
2018-08-29T22:25:20.049Z,100161.77
2018-08-29T22:27:49.041Z,100156.41
2018-08-29T22:30:18.094Z,100159.52
2018-08-29T22:32:47.142Z,100161.10
2018-08-29T22:35:16.162Z,100161.59
2018-08-29T22:37:45.120Z,100161.98
2018-08-29T22:40:14.082Z,100164.77
2018-08-29T22:42:42.985Z,100176.37
2018-08-29T22:45:11.952Z,100174.22
2018-08-29T22:47:40.931Z,100174.92
2018-08-29T22:50:09.849Z,100181.02
2018-08-29T22:52:38.874Z,100185.43
2018-08-29T22:55:07.890Z,100188.22
2018-08-29T22:57:36.848Z,100190.30
2018-08-29T23:00:06.012Z,100193.13
2018-08-29T23:02:34.957Z,100196.48
2018-08-29T23:05:03.912Z,100205.88
2018-08-29T23:07:32.997Z,100208.45
2018-08-29T23:10:02.023Z,100208.36
2018-08-29T23:12:30.982Z,100204.41
2018-08-29T23:14:59.953Z,100205.25
2018-08-29T23:17:28.912Z,100200.78
2018-08-29T23:19:57.873Z,100199.14
2018-08-29T23:22:26.874Z,100219.60
2018-08-29T23:24:55.796Z,100223.72
2018-08-29T23:27:24.781Z,100228.64
2018-08-29T23:29:53.773Z,100234.09
2018-08-29T23:32:22.863Z,100235.45
2018-08-29T23:34:51.882Z,100238.94
2018-08-29T23:37:20.909Z,100247.36
2018-08-29T23:39:49.926Z,100245.42
2018-08-29T23:42:18.990Z,100244.88
2018-08-29T23:44:48.030Z,100246.45
2018-08-29T23:47:16.995Z,100253.86
2018-08-29T23:49:45.941Z,100259.80
2018-08-29T23:52:15.060Z,100266.74
2018-08-29T23:54:43.998Z,100261.55
2018-08-29T23:57:13.073Z,100258.53
2018-08-29T23:59:42.123Z,100265.05
